createdAt,value
2018-08-30T00:00:20.578Z,72.84
2018-08-30T00:02:49.845Z,72.89
2018-08-30T00:05:19.085Z,72.16
2018-08-30T00:07:48.082Z,72.26
2018-08-30T00:10:17.053Z,72.20
2018-08-30T00:12:46.216Z,71.70
2018-08-30T00:15:15.206Z,71.62
2018-08-30T00:17:44.164Z,71.21
2018-08-30T00:20:13.269Z,70.81
2018-08-30T00:22:42.230Z,70.65
2018-08-30T00:25:11.222Z,70.61
2018-08-30T00:27:40.202Z,71.03
2018-08-30T00:30:09.229Z,71.00
2018-08-30T00:32:38.209Z,70.40
2018-08-30T00:35:07.281Z,70.25
2018-08-30T00:37:36.285Z,71.10
2018-08-30T00:40:05.277Z,70.18
2018-08-30T00:42:34.339Z,70.68
2018-08-30T00:45:03.352Z,70.28
2018-08-30T00:47:32.447Z,70.68
2018-08-30T00:50:01.483Z,70.63
2018-08-30T00:52:30.512Z,70.76
2018-08-30T00:54:59.547Z,70.90
2018-08-30T00:57:28.563Z,71.08
2018-08-30T00:59:57.919Z,71.14
2018-08-30T01:02:26.935Z,70.56
2018-08-30T01:04:56.020Z,71.12
2018-08-30T01:07:25.049Z,71.35
2018-08-30T01:09:54.515Z,71.05
2018-08-30T01:12:23.567Z,70.91
2018-08-30T01:14:52.563Z,71.76
2018-08-30T01:17:21.562Z,71.33
2018-08-30T01:19:50.592Z,71.60
2018-08-30T01:22:19.595Z,71.71
2018-08-30T01:24:48.877Z,71.82
2018-08-30T01:27:17.897Z,71.65
2018-08-30T01:29:46.911Z,71.54
2018-08-30T01:32:15.944Z,70.76
2018-08-30T01:34:44.943Z,70.47
2018-08-30T01:37:13.979Z,70.55
2018-08-30T01:39:42.999Z,70.32
2018-08-30T01:42:12.040Z,69.97
2018-08-30T01:44:41.042Z,70.02
2018-08-30T01:47:10.340Z,70.10
2018-08-30T01:49:39.506Z,69.55
2018-08-30T01:52:08.615Z,69.60
2018-08-30T01:54:37.732Z,70.05
2018-08-30T01:57:06.755Z,69.81
2018-08-30T01:59:35.784Z,69.81
2018-08-30T02:02:04.807Z,69.63
2018-08-30T02:04:33.969Z,69.24
2018-08-30T02:07:03.260Z,69.06
2018-08-30T02:09:32.293Z,69.13
2018-08-30T02:12:01.326Z,69.02
2018-08-30T02:14:30.364Z,68.89
2018-08-30T02:16:59.438Z,68.90
2018-08-30T02:19:28.459Z,69.42
2018-08-30T02:21:57.491Z,69.46
2018-08-30T02:24:26.527Z,69.36
2018-08-30T02:26:55.552Z,69.48
2018-08-30T02:29:24.619Z,69.43
2018-08-30T02:31:53.718Z,69.78
2018-08-30T02:34:22.706Z,69.97
2018-08-30T02:36:51.738Z,69.59
2018-08-30T02:39:20.854Z,69.87
2018-08-30T02:41:50.066Z,69.49
2018-08-30T02:44:19.139Z,69.55
2018-08-30T02:46:48.236Z,69.90
2018-08-30T02:49:17.311Z,69.19
2018-08-30T02:51:46.324Z,68.98
2018-08-30T02:54:15.388Z,68.96
2018-08-30T02:56:44.463Z,69.04
2018-08-30T02:59:13.491Z,69.64
2018-08-30T03:01:42.547Z,69.05
2018-08-30T03:04:11.591Z,69.94
2018-08-30T03:06:40.755Z,69.63
2018-08-30T03:09:10.199Z,69.61
2018-08-30T03:11:39.266Z,69.88
2018-08-30T03:14:08.315Z,69.78
2018-08-30T03:16:37.344Z,69.74
2018-08-30T03:19:06.499Z,69.28
2018-08-30T03:21:35.549Z,69.87
2018-08-30T03:24:04.609Z,69.87
2018-08-30T03:26:33.655Z,69.96
2018-08-30T03:29:02.675Z,69.84
2018-08-30T03:31:31.819Z,70.59
2018-08-30T03:34:00.880Z,70.15
2018-08-30T03:36:29.884Z,69.69
2018-08-30T03:38:58.926Z,69.73
2018-08-30T03:41:27.963Z,69.43
2018-08-30T03:43:57.027Z,69.96
2018-08-30T03:46:26.068Z,69.87
2018-08-30T03:48:55.250Z,70.04
2018-08-30T03:51:24.298Z,69.78
2018-08-30T03:53:53.319Z,69.10
2018-08-30T03:56:22.347Z,69.09
2018-08-30T03:58:51.413Z,69.36
2018-08-30T04:01:20.466Z,69.50
2018-08-30T04:03:49.508Z,69.30
2018-08-30T04:06:18.530Z,69.82
2018-08-30T04:08:47.599Z,69.87
2018-08-30T04:11:16.627Z,69.88
2018-08-30T04:13:45.688Z,69.73
2018-08-30T04:16:14.724Z,69.64
2018-08-30T04:18:43.774Z,69.71
2018-08-30T04:21:12.842Z,69.76
2018-08-30T04:23:41.887Z,69.66
2018-08-30T04:26:10.926Z,69.55
2018-08-30T04:28:39.949Z,69.37
2018-08-30T04:31:09.040Z,69.64
2018-08-30T04:33:38.007Z,69.71
2018-08-30T04:36:07.060Z,70.29
2018-08-30T04:38:36.075Z,69.65
2018-08-30T04:41:05.280Z,68.92
2018-08-30T04:43:34.432Z,69.60
2018-08-30T04:46:04.332Z,69.48
2018-08-30T04:48:33.379Z,69.54
2018-08-30T04:51:02.395Z,69.43
2018-08-30T04:53:31.440Z,69.64
2018-08-30T04:56:00.968Z,69.68
2018-08-30T04:58:30.147Z,69.96
2018-08-30T05:00:59.740Z,72.88
2018-08-30T05:03:28.987Z,69.29
2018-08-30T05:05:58.099Z,68.85
2018-08-30T05:08:27.434Z,68.59
2018-08-30T05:10:56.864Z,70.13
2018-08-30T05:13:25.911Z,69.26
2018-08-30T05:15:54.943Z,68.50
2018-08-30T05:18:23.954Z,68.81
2018-08-30T05:20:53.006Z,68.54
2018-08-30T05:23:22.009Z,69.08
2018-08-30T05:25:51.043Z,69.12
2018-08-30T05:28:20.076Z,69.57
2018-08-30T05:30:49.134Z,70.05
2018-08-30T05:33:18.155Z,70.21
2018-08-30T05:35:47.301Z,70.43
2018-08-30T05:38:16.304Z,70.17
2018-08-30T05:40:45.353Z,70.17
2018-08-30T05:43:14.415Z,70.32
2018-08-30T05:45:43.435Z,70.49
2018-08-30T05:48:12.447Z,69.95
2018-08-30T05:50:41.496Z,70.11
2018-08-30T05:53:10.523Z,69.75
2018-08-30T05:55:39.559Z,70.09
2018-08-30T05:58:08.595Z,70.28
2018-08-30T06:00:37.646Z,70.36
2018-08-30T06:03:06.853Z,69.55
2018-08-30T06:05:35.887Z,69.94
2018-08-30T06:08:05.026Z,69.68
2018-08-30T06:10:34.027Z,69.61
2018-08-30T06:13:03.091Z,69.72
2018-08-30T06:15:32.100Z,69.92
2018-08-30T06:18:01.116Z,69.73
2018-08-30T06:20:30.162Z,69.12
2018-08-30T06:22:59.490Z,69.11
2018-08-30T06:25:28.563Z,68.01
2018-08-30T06:27:57.594Z,67.72
2018-08-30T06:30:26.615Z,67.50
2018-08-30T06:32:55.714Z,66.73
2018-08-30T06:35:24.687Z,67.51
2018-08-30T06:37:53.740Z,66.96
2018-08-30T06:40:22.787Z,66.21
2018-08-30T06:42:51.866Z,65.38
2018-08-30T06:45:21.146Z,65.68
2018-08-30T06:47:50.160Z,66.16
2018-08-30T06:50:19.360Z,65.85
2018-08-30T06:52:48.398Z,65.37
2018-08-30T06:55:17.730Z,65.29
2018-08-30T06:57:46.774Z,65.51
2018-08-30T07:00:15.814Z,64.61
2018-08-30T07:02:44.887Z,65.33
2018-08-30T07:05:13.920Z,64.40
2018-08-30T07:07:43.051Z,64.53
2018-08-30T07:10:12.072Z,63.65
2018-08-30T07:12:41.091Z,63.55
2018-08-30T07:15:10.174Z,63.66
2018-08-30T07:17:39.203Z,63.49
2018-08-30T07:20:08.254Z,62.83
2018-08-30T07:22:37.268Z,62.57
2018-08-30T07:25:06.572Z,63.27
2018-08-30T07:27:35.661Z,62.44
2018-08-30T07:30:06.163Z,62.08
2018-08-30T07:32:35.215Z,62.56
2018-08-30T07:35:04.276Z,62.00
2018-08-30T07:37:33.303Z,61.77
2018-08-30T07:40:02.339Z,61.30
2018-08-30T07:42:31.406Z,61.44
2018-08-30T07:45:00.607Z,60.73
2018-08-30T07:47:29.627Z,62.38
2018-08-30T07:49:58.692Z,61.94
2018-08-30T07:52:27.716Z,61.25
2018-08-30T07:54:56.747Z,61.58
2018-08-30T07:57:25.838Z,61.79
2018-08-30T07:59:54.910Z,60.10
2018-08-30T08:02:23.903Z,59.45
2018-08-30T08:04:52.919Z,59.86
2018-08-30T08:07:22.074Z,59.04
2018-08-30T08:09:51.011Z,58.92
2018-08-30T08:12:20.059Z,59.23
2018-08-30T08:14:49.134Z,60.20
2018-08-30T08:17:18.166Z,60.07
2018-08-30T08:19:47.181Z,60.11
2018-08-30T08:22:16.252Z,60.10
2018-08-30T08:24:45.288Z,60.81
2018-08-30T08:27:14.377Z,60.88
2018-08-30T08:29:43.407Z,61.43
2018-08-30T08:32:12.464Z,61.05
2018-08-30T08:34:41.504Z,60.46
2018-08-30T08:37:10.667Z,61.31
2018-08-30T08:39:39.704Z,59.51
2018-08-30T08:42:08.758Z,60.60
2018-08-30T08:44:37.800Z,60.44
2018-08-30T08:47:06.842Z,60.74
2018-08-30T08:49:36.571Z,60.22
2018-08-30T08:52:05.601Z,60.93
2018-08-30T08:54:34.799Z,60.80
2018-08-30T08:57:04.102Z,61.51
2018-08-30T08:59:33.127Z,61.55
2018-08-30T09:02:02.187Z,61.76
2018-08-30T09:04:31.208Z,61.72
2018-08-30T09:07:00.570Z,62.02
2018-08-30T09:09:29.546Z,61.95
2018-08-30T09:11:58.579Z,61.88
2018-08-30T09:14:27.650Z,61.04
2018-08-30T09:16:56.656Z,61.92
2018-08-30T09:19:25.734Z,61.41
2018-08-30T09:21:54.776Z,61.67
2018-08-30T09:24:23.819Z,61.45
2018-08-30T09:26:52.984Z,62.63
2018-08-30T09:29:21.903Z,62.58
2018-08-30T09:31:50.967Z,63.24
2018-08-30T09:34:20.012Z,62.38
2018-08-30T09:36:49.059Z,62.10
2018-08-30T09:39:18.111Z,62.20
2018-08-30T09:41:47.124Z,61.51
2018-08-30T09:44:16.213Z,62.21
2018-08-30T09:46:45.247Z,61.06
2018-08-30T09:49:14.320Z,61.04
2018-08-30T09:51:43.312Z,59.88
2018-08-30T09:54:12.343Z,59.67
2018-08-30T09:56:41.423Z,59.06
2018-08-30T09:59:10.459Z,58.04
2018-08-30T10:01:44.916Z,56.49
2018-08-30T10:04:13.975Z,55.31
2018-08-30T10:06:42.995Z,55.87
2018-08-30T10:09:12.063Z,55.96
2018-08-30T10:11:41.118Z,55.87
2018-08-30T10:14:10.467Z,55.35
2018-08-30T10:16:39.522Z,55.59
2018-08-30T10:19:08.538Z,55.24
2018-08-30T10:21:37.709Z,55.17
2018-08-30T10:24:06.631Z,54.64
2018-08-30T10:26:35.710Z,54.12
2018-08-30T10:29:04.810Z,53.94
2018-08-30T10:31:33.977Z,53.69
2018-08-30T10:34:03.019Z,54.47
2018-08-30T10:36:32.410Z,53.93
2018-08-30T10:39:01.637Z,52.38
2018-08-30T10:41:30.740Z,53.37
2018-08-30T10:43:59.912Z,52.19
2018-08-30T10:46:28.981Z,52.34
2018-08-30T10:48:58.234Z,51.22
2018-08-30T10:51:27.277Z,51.62
2018-08-30T10:53:56.323Z,50.89
2018-08-30T10:56:25.476Z,50.62
2018-08-30T10:58:54.363Z,50.38
2018-08-30T11:01:23.415Z,50.21
2018-08-30T11:03:52.513Z,50.63
2018-08-30T11:06:21.539Z,49.20
2018-08-30T11:08:50.792Z,49.34
2018-08-30T11:11:19.902Z,50.12
2018-08-30T11:13:49.210Z,51.18
2018-08-30T11:16:24.778Z,51.71
2018-08-30T11:18:54.071Z,50.30
2018-08-30T11:21:23.083Z,51.10
2018-08-30T11:23:52.101Z,50.52
2018-08-30T11:26:21.143Z,50.72
2018-08-30T11:28:50.156Z,50.74
2018-08-30T11:31:19.212Z,50.49
2018-08-30T11:33:48.243Z,50.98
2018-08-30T11:36:17.298Z,51.08
2018-08-30T11:38:46.332Z,51.08
2018-08-30T11:41:15.589Z,49.54
2018-08-30T11:43:44.612Z,49.13
2018-08-30T11:46:13.623Z,47.80
2018-08-30T11:48:42.671Z,47.01
2018-08-30T11:51:11.725Z,45.67
2018-08-30T11:53:40.795Z,44.88
2018-08-30T11:56:10.156Z,43.82
2018-08-30T11:58:39.166Z,43.74
2018-08-30T12:01:08.231Z,45.66
2018-08-30T12:03:37.243Z,43.98
2018-08-30T12:06:06.292Z,43.16
2018-08-30T12:08:35.311Z,43.67
2018-08-30T12:11:04.507Z,43.67
2018-08-30T12:13:33.367Z,44.97
2018-08-30T12:16:02.408Z,43.87
2018-08-30T12:18:31.420Z,45.08
2018-08-30T12:21:00.507Z,44.05
2018-08-30T12:23:29.626Z,44.15
2018-08-30T12:25:58.827Z,44.05
2018-08-30T12:28:28.242Z,44.78
2018-08-30T12:30:57.630Z,44.73
2018-08-30T12:33:26.663Z,44.28
2018-08-30T12:35:55.867Z,44.63
2018-08-30T12:38:24.693Z,45.29
2018-08-30T12:40:53.723Z,44.86
2018-08-30T12:43:22.880Z,45.71
2018-08-30T12:45:51.866Z,46.29
2018-08-30T12:48:20.885Z,46.85
2018-08-30T12:50:50.003Z,46.23
2018-08-30T12:53:19.055Z,46.24
2018-08-30T12:55:48.120Z,46.06
2018-08-30T12:58:17.356Z,44.95
2018-08-30T13:00:46.288Z,45.13
2018-08-30T13:03:15.400Z,44.97
2018-08-30T13:05:44.971Z,45.49
2018-08-30T13:08:13.717Z,45.53
2018-08-30T13:10:42.989Z,45.72
2018-08-30T13:13:12.302Z,44.52
2018-08-30T13:15:41.265Z,45.98
2018-08-30T13:18:10.168Z,46.71
2018-08-30T13:20:39.432Z,46.84
2018-08-30T13:23:08.334Z,46.95
2018-08-30T13:25:37.563Z,47.76
2018-08-30T13:28:06.487Z,48.44
2018-08-30T13:30:35.386Z,47.98
2018-08-30T13:33:04.653Z,49.08
2018-08-30T13:35:33.930Z,47.61
2018-08-30T13:38:03.367Z,48.66
2018-08-30T13:40:32.172Z,47.49
2018-08-30T13:43:01.425Z,48.05
2018-08-30T13:45:30.347Z,47.56
2018-08-30T13:47:59.700Z,47.61
2018-08-30T13:50:31.549Z,47.58
2018-08-30T13:53:00.598Z,48.01
2018-08-30T13:55:29.630Z,48.31
2018-08-30T13:57:58.729Z,48.76
2018-08-30T14:00:27.987Z,48.42
2018-08-30T14:02:56.687Z,48.32
2018-08-30T14:05:25.756Z,49.11
2018-08-30T14:07:54.780Z,48.75
2018-08-30T14:10:24.148Z,49.38
2018-08-30T14:12:52.891Z,48.74
2018-08-30T14:15:22.254Z,48.42
2018-08-30T14:17:50.850Z,47.59
2018-08-30T14:20:19.785Z,47.00
2018-08-30T14:22:49.193Z,47.99
2018-08-30T14:25:18.223Z,47.64
2018-08-30T14:27:47.272Z,48.02
2018-08-30T14:30:16.311Z,47.99
2018-08-30T14:32:45.391Z,47.55
2018-08-30T14:35:14.596Z,48.43
2018-08-30T14:37:43.662Z,48.19
2018-08-30T14:40:12.682Z,48.63
2018-08-30T14:42:41.759Z,47.39
2018-08-30T14:45:10.784Z,46.00
2018-08-30T14:47:39.949Z,46.47
2018-08-30T14:50:08.866Z,45.90
2018-08-30T14:52:37.922Z,46.65
2018-08-30T14:55:07.303Z,46.15
2018-08-30T14:57:36.584Z,46.19
2018-08-30T15:00:05.647Z,47.49
2018-08-30T15:02:34.594Z,46.39
2018-08-30T15:05:03.726Z,46.84
2018-08-30T15:07:32.685Z,46.88
2018-08-30T15:10:02.058Z,46.32
2018-08-30T15:12:31.203Z,46.76
2018-08-30T15:15:00.103Z,46.87
2018-08-30T15:17:29.245Z,47.28
2018-08-30T15:19:58.176Z,48.29
2018-08-30T15:22:27.228Z,48.03
2018-08-30T15:24:56.279Z,47.52
2018-08-30T15:27:25.329Z,48.69
2018-08-30T15:29:54.331Z,48.82
2018-08-30T15:32:23.422Z,49.81
2018-08-30T15:34:52.647Z,49.35
2018-08-30T15:37:21.669Z,49.45
2018-08-30T15:39:50.682Z,49.02
2018-08-30T15:42:19.790Z,50.42
2018-08-30T15:44:48.978Z,49.76
2018-08-30T15:47:18.098Z,50.52
2018-08-30T15:49:47.079Z,50.05
2018-08-30T15:52:16.158Z,48.87
2018-08-30T15:54:45.175Z,50.30
2018-08-30T15:57:14.267Z,50.94
2018-08-30T15:59:43.336Z,49.64
2018-08-30T16:02:12.371Z,50.12
2018-08-30T16:04:41.396Z,49.49
2018-08-30T16:07:10.435Z,50.16
2018-08-30T16:09:39.456Z,49.73
2018-08-30T16:12:08.522Z,49.79
2018-08-30T16:14:37.556Z,49.90
2018-08-30T16:17:06.624Z,50.32
2018-08-30T16:19:35.615Z,50.85
2018-08-30T16:22:04.635Z,50.06
2018-08-30T16:24:33.680Z,51.00
2018-08-30T16:27:02.784Z,51.16
2018-08-30T16:29:31.810Z,50.37
2018-08-30T16:32:00.971Z,50.90
2018-08-30T16:34:30.033Z,50.34
2018-08-30T16:36:59.024Z,50.70
2018-08-30T16:39:28.170Z,50.09
2018-08-30T16:41:57.255Z,50.60
2018-08-30T16:44:26.336Z,50.42
2018-08-30T16:46:55.346Z,48.94
2018-08-30T16:49:24.344Z,49.06
2018-08-30T16:51:53.387Z,50.35
2018-08-30T16:54:22.411Z,49.55
2018-08-30T16:56:52.731Z,50.60
2018-08-30T16:59:21.773Z,50.66
2018-08-30T17:01:50.776Z,51.15
2018-08-30T17:04:19.832Z,50.17
2018-08-30T17:06:48.855Z,50.01
2018-08-30T17:09:18.000Z,51.59
2018-08-30T17:11:47.019Z,50.78
2018-08-30T17:14:16.040Z,49.74
2018-08-30T17:16:45.089Z,48.83
2018-08-30T17:19:20.780Z,50.54
2018-08-30T17:21:49.824Z,51.30
2018-08-30T17:24:18.827Z,50.00
2018-08-30T17:26:48.149Z,49.75
2018-08-30T17:29:17.190Z,50.09
2018-08-30T17:31:46.325Z,51.11
2018-08-30T17:34:15.373Z,50.44
2018-08-30T17:36:44.387Z,50.55
2018-08-30T17:39:13.417Z,52.26
2018-08-30T17:41:46.789Z,53.55
2018-08-30T17:44:15.887Z,53.25
2018-08-30T17:46:44.901Z,53.15
2018-08-30T17:49:13.911Z,53.16
2018-08-30T17:51:42.987Z,54.59
2018-08-30T17:54:12.015Z,54.16
2018-08-30T17:56:41.087Z,55.05
2018-08-30T17:59:10.395Z,56.10
2018-08-30T18:01:39.484Z,56.66
2018-08-30T18:04:08.540Z,58.89
2018-08-30T18:06:44.201Z,58.64
2018-08-30T18:09:13.219Z,59.65
2018-08-30T18:11:42.308Z,60.02
2018-08-30T18:14:11.325Z,60.07
2018-08-30T18:16:40.391Z,60.42
2018-08-30T18:19:09.431Z,61.09
2018-08-30T18:21:38.458Z,61.67
2018-08-30T18:24:07.534Z,62.10
2018-08-30T18:26:36.515Z,61.66
2018-08-30T18:29:05.555Z,61.90
2018-08-30T18:31:34.585Z,62.25
2018-08-30T18:34:03.608Z,61.98
2018-08-30T18:36:32.662Z,62.33
2018-08-30T18:39:01.702Z,62.55
2018-08-30T18:41:30.735Z,62.11
2018-08-30T18:43:59.768Z,62.67
2018-08-30T18:46:28.907Z,62.47
2018-08-30T18:48:57.931Z,63.08
2018-08-30T18:51:27.041Z,62.95
2018-08-30T18:53:56.112Z,63.70
2018-08-30T18:56:25.132Z,63.41
2018-08-30T18:58:54.235Z,63.41
2018-08-30T19:01:23.504Z,64.40
2018-08-30T19:03:52.743Z,64.13
2018-08-30T19:06:21.784Z,64.43
2018-08-30T19:08:50.993Z,64.50
2018-08-30T19:11:20.039Z,64.21
2018-08-30T19:13:49.088Z,64.69
2018-08-30T19:16:23.837Z,65.03
2018-08-30T19:18:58.239Z,64.83
2018-08-30T19:21:27.587Z,64.83
2018-08-30T19:23:57.423Z,64.99
2018-08-30T19:26:26.498Z,65.17
2018-08-30T19:28:55.543Z,65.18
2018-08-30T19:31:24.927Z,65.30
2018-08-30T19:33:53.999Z,65.54
2018-08-30T19:36:28.395Z,65.52
2018-08-30T19:38:57.680Z,65.46
2018-08-30T19:41:26.707Z,65.14
2018-08-30T19:43:55.743Z,65.79
2018-08-30T19:46:24.964Z,65.44
2018-08-30T19:48:53.983Z,65.94
2018-08-30T19:51:23.110Z,66.13
2018-08-30T19:53:52.163Z,66.60
2018-08-30T19:56:21.253Z,66.06
2018-08-30T19:58:50.267Z,66.37
2018-08-30T20:01:19.302Z,65.55
2018-08-30T20:03:48.352Z,65.83
2018-08-30T20:06:17.375Z,65.71
2018-08-30T20:08:46.395Z,64.63
2018-08-30T20:11:15.583Z,64.45
2018-08-30T20:13:44.695Z,64.75
2018-08-30T20:16:13.739Z,64.67
2018-08-30T20:18:43.269Z,64.13
2018-08-30T20:21:12.352Z,63.18
2018-08-30T20:23:41.375Z,62.84
2018-08-30T20:26:10.390Z,61.27
2018-08-30T20:28:39.481Z,62.13
2018-08-30T20:31:08.479Z,62.62
2018-08-30T20:33:37.495Z,62.14
2018-08-30T20:36:06.539Z,60.36
2018-08-30T20:38:35.565Z,60.36
2018-08-30T20:41:04.894Z,57.06
2018-08-30T20:43:34.008Z,58.89
2018-08-30T20:46:03.360Z,59.87
2018-08-30T20:48:32.434Z,56.74
2018-08-30T20:51:01.427Z,59.63
2018-08-30T20:53:30.471Z,56.72
2018-08-30T20:55:59.460Z,58.23
2018-08-30T20:58:28.590Z,58.53
2018-08-30T21:00:57.595Z,58.78
2018-08-30T21:03:26.731Z,58.64
2018-08-30T21:05:55.803Z,56.99
2018-08-30T21:08:24.834Z,57.02
2018-08-30T21:10:53.871Z,57.40
2018-08-30T21:13:22.883Z,56.82
2018-08-30T21:15:51.899Z,57.44
2018-08-30T21:18:21.034Z,57.30
2018-08-30T21:20:50.102Z,58.12
2018-08-30T21:23:19.095Z,57.64
2018-08-30T21:25:48.127Z,58.16
2018-08-30T21:28:17.146Z,58.50
2018-08-30T21:30:46.195Z,57.47
2018-08-30T21:33:15.198Z,57.33
2018-08-30T21:35:44.234Z,57.74
2018-08-30T21:38:13.251Z,58.71
2018-08-30T21:40:42.304Z,59.33
2018-08-30T21:43:11.323Z,59.90
2018-08-30T21:45:40.358Z,60.22
2018-08-30T21:48:09.762Z,60.05
2018-08-30T21:50:38.776Z,58.03
2018-08-30T21:53:07.868Z,59.72
2018-08-30T21:55:36.889Z,58.04
2018-08-30T21:58:05.910Z,59.01
2018-08-30T22:00:34.983Z,55.31
2018-08-30T22:03:04.091Z,57.76
2018-08-30T22:05:33.211Z,58.36
2018-08-30T22:08:02.219Z,57.55
2018-08-30T22:10:31.292Z,57.02
2018-08-30T22:13:00.323Z,58.97
2018-08-30T22:15:29.459Z,59.26
2018-08-30T22:17:58.511Z,59.26
2018-08-30T22:20:27.530Z,60.10
2018-08-30T22:22:56.627Z,60.01
2018-08-30T22:25:25.676Z,60.78
2018-08-30T22:27:54.698Z,60.75
2018-08-30T22:30:23.754Z,60.67
2018-08-30T22:32:52.788Z,60.59
2018-08-30T22:35:21.796Z,60.16
2018-08-30T22:37:50.811Z,59.88
2018-08-30T22:40:19.866Z,60.43
2018-08-30T22:42:48.882Z,58.97
2018-08-30T22:45:17.947Z,59.63
2018-08-30T22:47:46.966Z,59.41
2018-08-30T22:50:16.033Z,58.27
2018-08-30T22:52:45.120Z,58.80
2018-08-30T22:55:14.146Z,59.88
2018-08-30T22:57:43.189Z,59.90
2018-08-30T23:00:12.207Z,60.63
2018-08-30T23:02:41.229Z,61.17
2018-08-30T23:05:10.247Z,60.78
2018-08-30T23:07:39.387Z,61.31
2018-08-30T23:10:08.435Z,61.88
2018-08-30T23:12:37.508Z,60.28
2018-08-30T23:15:06.529Z,61.81
2018-08-30T23:17:35.572Z,61.77
2018-08-30T23:20:04.765Z,61.80
2018-08-30T23:22:33.784Z,61.25
2018-08-30T23:25:02.841Z,61.50
2018-08-30T23:27:31.961Z,61.81
2018-08-30T23:30:01.420Z,61.06
2018-08-30T23:32:36.983Z,61.34
2018-08-30T23:35:06.195Z,61.20
2018-08-30T23:37:35.203Z,61.98
2018-08-30T23:40:04.785Z,62.09
2018-08-30T23:42:33.810Z,63.16
2018-08-30T23:45:02.855Z,62.45
2018-08-30T23:47:32.320Z,63.14
2018-08-30T23:50:01.328Z,62.53
2018-08-30T23:52:30.339Z,62.95
2018-08-30T23:54:59.363Z,63.34
2018-08-30T23:57:28.371Z,63.35
